Time;durP1;ratioP1;P1;durP2;ratioP2;P2;SDS_P1;SDS_P2;PMS_P1;PMS_P2;Temp;Humidity;BMP_temperature;BMP_pressure;BME280_temperature;BME280_humidity;BME280_pressure;Samples;Min_cycle;Max_cycle;Signal;HPM_P1;HPM_P2
2023/05/07 00:01:15;;;;;;;40.20;27.97;;;15.10;99.90;;;;;;4913846;29;20226;-74
2023/05/07 00:03:44;;;;;;;39.00;27.27;;;15.10;99.90;;;;;;4916778;29;20218;-74
2023/05/07 00:06:12;;;;;;;43.47;28.00;;;15.10;99.90;;;;;;4914644;29;20198;-74
2023/05/07 00:08:39;;;;;;;37.97;27.70;;;15.10;99.90;;;;;;4918928;29;20603;-74
2023/05/07 00:11:05;;;;;;;42.07;28.40;;;15.00;99.90;;;;;;4921065;29;20217;-75
2023/05/07 00:13:35;;;;;;;45.67;28.77;;;15.00;99.90;;;;;;4917178;29;20230;-74
2023/05/07 00:16:02;;;;;;;41.90;28.07;;;15.00;99.90;;;;;;4916591;29;20250;-74
2023/05/07 00:18:30;;;;;;;42.37;29.10;;;15.00;99.90;;;;;;4915401;29;20241;-76
2023/05/07 00:20:56;;;;;;;41.80;27.97;;;15.00;99.90;;;;;;4916683;29;20214;-75
2023/05/07 00:23:23;;;;;;;41.00;27.93;;;15.00;99.90;;;;;;4916319;29;20213;-75
2023/05/07 00:25:50;;;;;;;46.17;30.63;;;14.90;99.90;;;;;;4917950;29;20289;-76
2023/05/07 00:28:17;;;;;;;43.77;30.37;;;14.90;99.90;;;;;;4916478;29;20306;-75
2023/05/07 00:30:43;;;;;;;45.93;30.97;;;15.00;99.90;;;;;;4915988;29;20642;-75
2023/05/07 00:33:10;;;;;;;49.93;32.10;;;14.90;99.90;;;;;;4915509;29;21459;-75
2023/05/07 00:35:37;;;;;;;47.93;31.80;;;14.90;99.90;;;;;;4918620;29;20217;-76
2023/05/07 00:38:04;;;;;;;51.33;32.80;;;15.00;99.90;;;;;;4916563;29;20210;-75
2023/05/07 00:40:31;;;;;;;56.23;34.23;;;15.00;99.90;;;;;;4895688;29;20228;-75
2023/05/07 00:42:57;;;;;;;54.73;34.93;;;15.00;99.90;;;;;;4918372;29;20236;-75
2023/05/07 00:45:28;;;;;;;59.10;35.17;;;15.00;99.90;;;;;;4917442;29;20257;-75
2023/05/07 00:47:57;;;;;;;51.90;35.53;;;15.00;99.90;;;;;;4915316;29;20216;-74
2023/05/07 00:50:25;;;;;;;52.97;34.03;;;15.00;99.90;;;;;;4917054;29;20618;-75
2023/05/07 00:52:53;;;;;;;56.93;35.93;;;15.00;99.90;;;;;;4919752;29;20564;-75
2023/05/07 00:55:20;;;;;;;56.53;34.77;;;15.00;99.90;;;;;;4919888;29;20688;-75
2023/05/07 00:57:47;;;;;;;57.27;37.03;;;15.00;99.90;;;;;;4916627;29;20212;-74
2023/05/07 01:00:14;;;;;;;56.17;34.73;;;15.00;99.90;;;;;;4908413;29;20228;-75
2023/05/07 01:02:42;;;;;;;51.03;33.87;;;15.10;99.90;;;;;;4918590;29;20240;-75
2023/05/07 01:05:12;;;;;;;58.10;36.30;;;15.00;99.90;;;;;;4918141;29;20607;-74
2023/05/07 01:07:41;;;;;;;54.17;34.80;;;15.10;99.90;;;;;;4917940;29;20222;-75
2023/05/07 01:10:09;;;;;;;53.67;36.17;;;15.00;99.90;;;;;;4916611;29;20216;-74
2023/05/07 01:12:39;;;;;;;57.37;36.60;;;15.00;99.90;;;;;;4919332;29;20225;-73
2023/05/07 01:15:08;;;;;;;55.77;36.93;;;15.10;99.90;;;;;;4923748;29;20304;-74
2023/05/07 01:17:41;;;;;;;55.90;36.37;;;15.00;99.90;;;;;;4914630;29;20245;-75
2023/05/07 01:20:10;;;;;;;59.30;36.00;;;15.00;99.90;;;;;;4897870;29;20249;-75
2023/05/07 01:22:38;;;;;;;57.53;36.47;;;15.10;99.90;;;;;;4919670;29;20268;-75
2023/05/07 01:25:07;;;;;;;56.60;35.67;;;15.00;99.90;;;;;;4917117;29;20286;-74
2023/05/07 01:27:35;;;;;;;56.80;35.93;;;15.00;99.90;;;;;;4902743;29;20772;-76
2023/05/07 01:30:02;;;;;;;60.37;35.87;;;15.00;99.90;;;;;;4916448;29;20226;-75
2023/05/07 01:32:37;;;;;;;55.90;35.63;;;15.00;99.90;;;;;;4915601;29;20285;-75
2023/05/07 01:35:09;;;;;;;53.03;34.87;;;14.90;99.90;;;;;;4916155;29;20209;-75
2023/05/07 01:37:38;;;;;;;58.87;35.37;;;15.00;99.90;;;;;;4916857;29;20241;-75
2023/05/07 01:40:07;;;;;;;60.13;37.07;;;15.00;99.90;;;;;;4922023;29;20208;-75
2023/05/07 01:42:33;;;;;;;54.90;36.23;;;14.90;99.90;;;;;;4919313;29;20205;-75
2023/05/07 01:45:00;;;;;;;53.03;34.60;;;14.90;99.90;;;;;;4914181;29;20226;-75
2023/05/07 01:47:28;;;;;;;57.97;35.57;;;14.90;99.90;;;;;;4916629;29;20210;-74
2023/05/07 01:49:55;;;;;;;60.53;36.37;;;14.90;99.90;;;;;;4917092;29;20216;-74
2023/05/07 01:52:22;;;;;;;55.30;35.70;;;14.90;99.90;;;;;;4915112;29;20292;-75
2023/05/07 01:54:49;;;;;;;59.03;36.43;;;14.90;99.90;;;;;;4897564;29;20246;-76
2023/05/07 01:57:16;;;;;;;56.40;36.87;;;14.90;99.90;;;;;;4920588;29;20628;-76
2023/05/07 01:59:43;;;;;;;55.70;37.47;;;14.90;99.90;;;;;;4914850;29;20257;-76
2023/05/07 02:02:10;;;;;;;63.13;36.90;;;14.90;99.90;;;;;;4916887;29;20256;-75
2023/05/07 02:04:37;;;;;;;57.60;36.53;;;14.90;99.90;;;;;;4892224;29;20691;-75
2023/05/07 02:07:04;;;;;;;61.87;37.60;;;15.10;99.90;;;;;;4914374;29;20202;-75
2023/05/07 02:09:30;;;;;;;63.37;40.20;;;14.90;99.90;;;;;;4920352;29;20265;-76
2023/05/07 02:11:57;;;;;;;67.27;39.40;;;14.90;99.90;;;;;;4917835;29;20273;-75
2023/05/07 02:14:25;;;;;;;66.53;40.57;;;14.80;99.90;;;;;;4915454;29;20234;-74
2023/05/07 02:16:52;;;;;;;68.93;40.87;;;14.80;99.90;;;;;;4913825;29;20250;-75
2023/05/07 02:19:20;;;;;;;69.97;41.87;;;14.80;99.90;;;;;;4918249;29;20253;-75
2023/05/07 02:21:48;;;;;;;69.63;41.40;;;14.70;99.90;;;;;;4920213;29;20197;-76
2023/05/07 02:24:14;;;;;;;76.77;42.30;;;14.70;99.90;;;;;;4914483;29;20209;-75
2023/05/07 02:26:41;;;;;;;75.40;42.07;;;14.70;99.90;;;;;;4914160;29;20206;-75
2023/05/07 02:29:08;;;;;;;76.27;42.33;;;14.70;99.90;;;;;;4913919;29;20309;-76
2023/05/07 02:31:35;;;;;;;77.87;43.87;;;14.70;99.90;;;;;;4914120;29;20306;-74
2023/05/07 02:34:02;;;;;;;75.90;44.23;;;14.60;99.90;;;;;;4917555;29;20255;-76
2023/05/07 02:36:28;;;;;;;79.00;44.53;;;14.60;99.90;;;;;;4918588;29;20229;-75
2023/05/07 02:38:55;;;;;;;75.47;42.67;;;14.60;99.90;;;;;;4919977;29;20560;-74
2023/05/07 02:41:22;;;;;;;79.67;43.77;;;14.50;99.90;;;;;;4914918;29;20297;-75
2023/05/07 02:43:49;;;;;;;85.67;44.90;;;14.50;99.90;;;;;;4914015;29;20214;-74
2023/05/07 02:46:15;;;;;;;77.20;44.57;;;14.50;99.90;;;;;;4913763;29;20316;-75
2023/05/07 02:48:42;;;;;;;77.77;44.47;;;14.40;99.90;;;;;;4914012;29;20661;-75
2023/05/07 02:51:09;;;;;;;83.13;46.37;;;14.40;99.90;;;;;;4917169;29;20206;-75
2023/05/07 02:53:36;;;;;;;80.97;45.77;;;14.40;99.90;;;;;;4914384;29;20257;-75
2023/05/07 02:56:03;;;;;;;85.80;47.20;;;14.40;99.90;;;;;;4909821;29;20316;-75
2023/05/07 02:58:30;;;;;;;86.90;47.63;;;14.30;99.90;;;;;;4914488;29;20261;-76
2023/05/07 03:00:57;;;;;;;87.87;46.10;;;14.20;99.90;;;;;;4911646;29;20691;-76
2023/05/07 03:03:24;;;;;;;85.40;46.40;;;14.30;99.90;;;;;;4918406;29;20230;-75
2023/05/07 03:05:50;;;;;;;92.67;48.17;;;14.30;99.90;;;;;;4913520;29;20205;-75
2023/05/07 03:08:17;;;;;;;97.27;50.53;;;14.30;99.90;;;;;;4913754;29;20238;-75
2023/05/07 03:10:44;;;;;;;101.90;52.17;;;14.20;99.90;;;;;;4913793;29;20755;-75
2023/05/07 03:13:11;;;;;;;99.80;51.17;;;14.20;99.90;;;;;;4914498;29;20233;-76
2023/05/07 03:15:38;;;;;;;108.27;54.43;;;14.20;99.90;;;;;;4913499;29;20301;-74
2023/05/07 03:18:05;;;;;;;106.53;52.93;;;14.30;99.90;;;;;;4916607;29;20245;-75
2023/05/07 03:20:33;;;;;;;108.83;53.37;;;14.30;99.90;;;;;;4913496;29;20209;-75
2023/05/07 03:23:00;;;;;;;101.10;50.60;;;14.30;99.90;;;;;;4904410;29;20218;-76
2023/05/07 03:25:27;;;;;;;104.13;52.00;;;14.40;99.90;;;;;;4909602;29;20265;-75
2023/05/07 03:27:53;;;;;;;100.87;52.40;;;14.40;99.90;;;;;;4913148;29;20214;-75
2023/05/07 03:30:20;;;;;;;105.20;53.83;;;14.40;99.90;;;;;;4912689;29;20222;-76
2023/05/07 03:32:47;;;;;;;96.97;49.57;;;14.40;99.90;;;;;;4894323;29;20294;-74
2023/05/07 03:35:14;;;;;;;96.03;48.90;;;14.40;99.90;;;;;;4913137;29;20217;-74
2023/05/07 03:37:41;;;;;;;96.33;51.03;;;14.40;99.90;;;;;;4914035;29;20210;-75
2023/05/07 03:40:09;;;;;;;91.00;50.60;;;14.40;99.90;;;;;;4913520;29;20635;-76
2023/05/07 03:42:37;;;;;;;88.73;47.63;;;14.40;99.90;;;;;;4913408;29;20209;-75
2023/05/07 03:45:05;;;;;;;87.63;48.23;;;14.40;99.90;;;;;;4915353;29;20264;-75
2023/05/07 03:47:31;;;;;;;89.00;48.83;;;14.40;99.90;;;;;;4912814;29;20214;-75
2023/05/07 03:49:59;;;;;;;80.63;44.50;;;14.30;99.90;;;;;;4913557;29;20213;-75
2023/05/07 03:52:26;;;;;;;84.70;45.67;;;14.30;99.90;;;;;;4913214;29;20213;-76
2023/05/07 03:54:53;;;;;;;84.50;47.40;;;14.30;99.90;;;;;;4916915;29;20235;-75
2023/05/07 03:57:20;;;;;;;89.10;47.70;;;14.30;99.90;;;;;;4915071;29;20258;-74
2023/05/07 03:59:47;;;;;;;84.87;47.67;;;14.20;99.90;;;;;;4915741;29;20222;-75
2023/05/07 04:02:14;;;;;;;90.57;47.57;;;14.30;99.90;;;;;;4917084;29;20217;-74
2023/05/07 04:04:40;;;;;;;86.73;47.60;;;14.30;99.90;;;;;;4913922;29;20206;-75
2023/05/07 04:07:07;;;;;;;87.57;48.93;;;14.30;99.90;;;;;;4913376;29;20206;-76
2023/05/07 04:09:34;;;;;;;90.33;46.87;;;14.30;99.90;;;;;;4911708;29;20297;-76
2023/05/07 04:12:01;;;;;;;88.20;48.07;;;14.30;99.90;;;;;;4919008;29;20753;-75
2023/05/07 04:14:28;;;;;;;94.30;48.43;;;14.30;99.90;;;;;;4925825;29;20298;-74
2023/05/07 04:16:54;;;;;;;93.87;47.67;;;14.30;99.90;;;;;;4915928;29;20663;-75
2023/05/07 04:19:21;;;;;;;91.67;47.80;;;14.30;99.90;;;;;;4918655;29;20202;-75
2023/05/07 04:21:48;;;;;;;90.60;48.07;;;14.30;99.90;;;;;;4917787;29;20232;-74
2023/05/07 04:24:15;;;;;;;100.47;49.57;;;14.30;99.90;;;;;;4912540;29;20210;-75
2023/05/07 04:26:41;;;;;;;94.13;50.50;;;14.20;99.90;;;;;;4917514;29;20213;-74
2023/05/07 04:29:08;;;;;;;99.03;49.90;;;14.30;99.90;;;;;;4918187;29;20673;-76
2023/05/07 04:31:35;;;;;;;88.00;48.33;;;14.20;99.90;;;;;;4919215;29;20204;-74
2023/05/07 04:34:03;;;;;;;92.83;51.70;;;14.30;99.90;;;;;;4919364;29;20268;-74
2023/05/07 04:36:30;;;;;;;86.47;47.90;;;14.30;99.90;;;;;;4917004;29;20214;-75
2023/05/07 04:38:57;;;;;;;92.20;48.87;;;14.30;99.90;;;;;;4919387;29;20256;-75
2023/05/07 04:41:24;;;;;;;84.83;49.07;;;14.30;99.90;;;;;;4917791;29;20290;-76
2023/05/07 04:43:52;;;;;;;88.83;47.87;;;14.20;99.90;;;;;;4918660;29;20269;-76
2023/05/07 04:46:19;;;;;;;85.10;47.43;;;14.30;99.90;;;;;;4920599;29;20217;-74
2023/05/07 04:48:45;;;;;;;79.67;45.50;;;14.30;99.90;;;;;;4918183;29;20234;-76
2023/05/07 04:51:12;;;;;;;86.07;47.63;;;14.20;99.90;;;;;;4922034;29;20249;-74
2023/05/07 04:53:40;;;;;;;76.90;44.00;;;14.20;99.90;;;;;;4915643;29;20230;-75
2023/05/07 04:56:07;;;;;;;84.93;45.30;;;14.20;99.90;;;;;;4920046;29;20301;-75
2023/05/07 04:58:34;;;;;;;75.53;43.90;;;14.20;99.90;;;;;;4918102;29;20214;-73
2023/05/07 05:01:01;;;;;;;74.63;43.13;;;14.30;99.90;;;;;;4924898;29;20320;-75
2023/05/07 05:03:29;;;;;;;73.57;43.17;;;14.30;99.90;;;;;;4920682;29;20210;-76
2023/05/07 05:05:59;;;;;;;72.20;41.50;;;14.30;99.90;;;;;;4918891;29;20612;-76
2023/05/07 05:08:26;;;;;;;68.47;40.43;;;14.60;99.90;;;;;;4914935;29;20596;-75
2023/05/07 05:10:53;;;;;;;69.50;39.60;;;14.40;99.90;;;;;;4917875;29;20248;-75
2023/05/07 05:13:20;;;;;;;63.80;37.47;;;13.90;99.90;;;;;;4916571;29;20305;-76
2023/05/07 05:15:47;;;;;;;65.53;37.57;;;14.30;99.90;;;;;;4917735;29;20624;-76
2023/05/07 05:18:13;;;;;;;62.57;35.80;;;14.40;99.90;;;;;;4914457;29;20261;-76
2023/05/07 05:20:40;;;;;;;56.10;35.30;;;14.40;99.90;;;;;;4913332;29;20562;-77
2023/05/07 05:23:08;;;;;;;58.50;35.37;;;14.40;99.90;;;;;;4915808;29;20312;-76
2023/05/07 05:25:34;;;;;;;56.03;34.40;;;14.40;99.90;;;;;;4914155;29;20673;-76
2023/05/07 05:28:01;;;;;;;60.27;35.70;;;14.40;99.90;;;;;;4910672;29;20462;-76
2023/05/07 05:30:28;;;;;;;58.70;32.67;;;14.40;99.90;;;;;;4902079;29;20340;-76
2023/05/07 05:32:55;;;;;;;59.30;34.03;;;14.40;99.90;;;;;;4910643;29;20294;-75
2023/05/07 05:35:21;;;;;;;55.07;33.67;;;14.50;99.90;;;;;;4916766;29;20246;-76
2023/05/07 05:37:48;;;;;;;54.47;31.73;;;14.50;99.90;;;;;;4913817;29;20589;-77
2023/05/07 05:40:15;;;;;;;54.03;32.83;;;14.50;99.90;;;;;;4914970;29;20325;-76
2023/05/07 05:42:42;;;;;;;49.10;32.00;;;14.50;99.90;;;;;;4915983;29;20210;-76
2023/05/07 05:45:09;;;;;;;51.60;30.93;;;14.50;99.90;;;;;;4920883;29;20257;-76
2023/05/07 05:47:36;;;;;;;52.87;32.43;;;14.50;99.90;;;;;;4912313;29;20225;-76
2023/05/07 05:50:05;;;;;;;53.37;31.73;;;14.50;99.90;;;;;;4917639;29;20210;-76
2023/05/07 05:52:32;;;;;;;49.67;30.97;;;14.60;99.90;;;;;;4914622;29;20679;-77
2023/05/07 05:54:59;;;;;;;52.83;31.80;;;14.60;99.90;;;;;;4915758;29;20324;-77
2023/05/07 05:57:25;;;;;;;53.90;31.13;;;14.60;99.90;;;;;;4920896;29;20208;-76
2023/05/07 05:59:54;;;;;;;50.93;31.80;;;14.60;99.90;;;;;;4914696;29;20226;-75
2023/05/07 06:02:24;;;;;;;51.10;31.20;;;14.60;99.90;;;;;;4915341;29;20261;-77
2023/05/07 06:04:51;;;;;;;52.37;32.07;;;14.60;99.90;;;;;;4915350;29;20619;-75
2023/05/07 06:07:18;;;;;;;47.67;31.07;;;14.70;99.90;;;;;;4912811;29;20277;-78
2023/05/07 06:09:45;;;;;;;46.90;29.53;;;14.70;99.90;;;;;;4914390;29;20214;-75
2023/05/07 06:12:12;;;;;;;48.80;30.37;;;14.70;99.90;;;;;;4910132;29;20686;-76
2023/05/07 06:14:38;;;;;;;45.60;29.23;;;14.70;99.90;;;;;;4914149;29;20702;-77
2023/05/07 06:17:06;;;;;;;42.67;29.50;;;14.70;99.90;;;;;;4914251;29;20224;-76
2023/05/07 06:19:33;;;;;;;48.43;31.13;;;14.70;99.90;;;;;;4918920;29;20201;-80
2023/05/07 06:22:01;;;;;;;49.27;31.07;;;14.70;99.90;;;;;;4914631;29;20309;-77
2023/05/07 06:24:28;;;;;;;48.50;30.70;;;14.80;99.90;;;;;;4916421;29;20711;-76
2023/05/07 06:26:55;;;;;;;47.67;29.67;;;14.80;99.90;;;;;;4912212;29;20225;-77
2023/05/07 06:29:22;;;;;;;48.90;32.27;;;14.80;99.90;;;;;;4915126;29;20229;-76
2023/05/07 06:31:49;;;;;;;45.00;29.97;;;14.80;99.90;;;;;;4914654;29;20255;-81
2023/05/07 06:34:16;;;;;;;47.13;30.00;;;14.80;99.90;;;;;;4914193;29;20257;-78
2023/05/07 06:36:46;;;;;;;49.33;30.13;;;14.70;99.90;;;;;;4901973;29;20350;-78
2023/05/07 06:39:13;;;;;;;46.90;30.57;;;14.70;99.90;;;;;;4913570;29;20206;-76
2023/05/07 06:41:39;;;;;;;46.27;30.50;;;14.70;99.90;;;;;;4913985;29;20296;-76
2023/05/07 06:44:06;;;;;;;50.17;32.43;;;14.70;99.90;;;;;;4914365;29;20719;-76
2023/05/07 06:46:35;;;;;;;49.27;32.20;;;14.80;99.90;;;;;;4907886;29;20297;-76
2023/05/07 06:49:02;;;;;;;48.33;30.90;;;14.70;99.90;;;;;;4913818;29;20270;-75
2023/05/07 06:51:29;;;;;;;48.43;31.67;;;14.80;99.90;;;;;;4889297;29;20285;-76
2023/05/07 06:53:56;;;;;;;46.83;31.13;;;14.80;99.90;;;;;;4913874;29;20326;-76
2023/05/07 06:56:23;;;;;;;46.23;31.00;;;14.90;99.90;;;;;;4913733;29;20300;-76
2023/05/07 06:58:50;;;;;;;44.67;30.83;;;14.90;99.90;;;;;;4914773;29;20209;-77
2023/05/07 07:01:17;;;;;;;47.03;29.73;;;14.90;99.90;;;;;;4917151;29;20607;-80
2023/05/07 07:03:43;;;;;;;48.20;30.80;;;15.00;99.90;;;;;;4914087;29;20214;-76
2023/05/07 07:06:10;;;;;;;45.53;30.03;;;15.00;99.90;;;;;;4913153;29;20301;-77
2023/05/07 07:08:38;;;;;;;43.53;29.47;;;15.10;99.90;;;;;;4915683;29;20206;-75
2023/05/07 07:11:06;;;;;;;38.38;27.33;;;15.20;99.90;;;;;;4914432;29;20206;-76
2023/05/07 07:13:33;;;;;;;43.22;29.25;;;15.40;99.90;;;;;;4916265;29;20206;-78
2023/05/07 07:16:00;;;;;;;39.47;28.92;;;15.50;99.90;;;;;;4914909;29;20279;-75
2023/05/07 07:18:27;;;;;;;43.05;28.83;;;15.70;99.90;;;;;;4916373;29;20337;-78
2023/05/07 07:20:53;;;;;;;37.35;27.50;;;15.70;99.90;;;;;;4914651;29;20252;-76
2023/05/07 07:23:20;;;;;;;39.83;28.58;;;15.70;99.90;;;;;;4909208;29;20591;-77
2023/05/07 07:25:47;;;;;;;40.25;27.45;;;15.70;99.90;;;;;;4898504;29;20328;-77
2023/05/07 07:28:14;;;;;;;40.95;28.95;;;15.60;99.90;;;;;;4911107;29;20296;-77
2023/05/07 07:30:41;;;;;;;43.33;28.27;;;15.60;99.90;;;;;;4911619;29;20225;-76
2023/05/07 07:33:16;;;;;;;40.53;29.63;;;15.60;99.90;;;;;;4918281;29;20308;-76
2023/05/07 07:35:42;;;;;;;39.40;27.00;;;15.60;99.90;;;;;;4914237;29;20661;-77
2023/05/07 07:38:09;;;;;;;37.85;27.55;;;15.70;99.90;;;;;;4915246;29;20297;-77
2023/05/07 07:40:36;;;;;;;40.80;27.30;;;15.70;99.90;;;;;;4913388;29;20714;-77
2023/05/07 07:43:02;;;;;;;37.35;25.65;;;15.80;99.90;;;;;;4919389;29;20637;-77
2023/05/07 07:45:29;;;;;;;40.80;27.15;;;16.00;99.90;;;;;;4921019;29;20700;-76
2023/05/07 07:47:56;;;;;;;40.88;27.17;;;16.00;99.90;;;;;;4922176;29;20211;-78
2023/05/07 07:50:23;;;;;;;36.63;26.38;;;16.10;99.90;;;;;;4920535;29;20708;-76
2023/05/07 07:53:09;;;;;;;36.65;26.65;;;16.10;99.90;;;;;;4913063;29;20206;-77
2023/05/07 07:55:40;;;;;;;38.63;26.92;;;16.00;99.90;;;;;;4898936;29;20228;-78
2023/05/07 07:58:07;;;;;;;35.55;26.00;;;16.10;99.90;;;;;;4915498;29;20301;-76
2023/05/07 08:00:33;;;;;;;35.30;25.42;;;16.20;99.90;;;;;;4916385;29;20225;-76
2023/05/07 08:03:00;;;;;;;32.75;23.63;;;16.50;99.90;;;;;;4912684;29;20550;-76
2023/05/07 08:05:27;;;;;;;30.40;22.95;;;16.80;99.90;;;;;;4913240;29;20217;-77
2023/05/07 08:07:54;;;;;;;29.95;22.10;;;17.10;99.90;;;;;;4916293;29;20213;-77
2023/05/07 08:10:21;;;;;;;29.33;23.17;;;17.50;99.90;;;;;;4917475;29;20631;-77
2023/05/07 08:12:49;;;;;;;32.15;22.60;;;17.70;99.90;;;;;;4920722;29;20205;-77
2023/05/07 08:15:17;;;;;;;32.78;22.60;;;17.90;99.90;;;;;;4915922;29;20580;-78
2023/05/07 08:17:43;;;;;;;30.65;22.58;;;18.10;99.90;;;;;;4916337;29;20240;-77
2023/05/07 08:20:10;;;;;;;28.10;21.15;;;18.20;99.90;;;;;;4917329;29;20249;-77
2023/05/07 08:22:37;;;;;;;25.17;20.85;;;18.30;99.90;;;;;;4916489;29;20217;-78
2023/05/07 08:25:04;;;;;;;33.33;22.95;;;18.30;99.90;;;;;;4917042;29;20314;-78
2023/05/07 08:27:31;;;;;;;26.75;22.25;;;18.40;99.90;;;;;;4916425;29;20308;-78
2023/05/07 08:29:58;;;;;;;26.38;21.88;;;18.50;99.90;;;;;;4916074;29;20217;-77
2023/05/07 08:32:25;;;;;;;30.85;20.85;;;18.60;99.90;;;;;;4912436;29;20222;-78
2023/05/07 08:34:52;;;;;;;25.75;19.20;;;18.80;99.90;;;;;;4918937;29;20280;-76
2023/05/07 08:37:19;;;;;;;27.50;21.52;;;18.90;99.90;;;;;;4916558;29;20651;-77
2023/05/07 08:39:46;;;;;;;30.83;21.50;;;19.00;99.90;;;;;;4914998;29;20296;-78
2023/05/07 08:42:16;;;;;;;28.60;20.80;;;19.00;99.90;;;;;;4916375;29;20248;-77
2023/05/07 08:44:48;;;;;;;31.75;21.33;;;19.10;99.90;;;;;;4908595;29;20222;-78
2023/05/07 08:47:16;;;;;;;27.25;20.75;;;18.90;99.90;;;;;;4916732;29;20214;-78
2023/05/07 08:49:43;;;;;;;29.98;21.55;;;18.90;99.90;;;;;;4919710;29;20265;-77
2023/05/07 08:52:12;;;;;;;29.13;21.25;;;18.80;99.90;;;;;;4912511;29;20301;-78
2023/05/07 08:54:39;;;;;;;29.40;21.73;;;18.70;99.90;;;;;;4916591;29;20252;-78
2023/05/07 08:57:06;;;;;;;25.48;20.80;;;18.70;99.90;;;;;;4915594;29;20745;-78
2023/05/07 08:59:32;;;;;;;24.65;20.75;;;18.70;99.90;;;;;;4916065;29;20676;-79
2023/05/07 09:01:59;;;;;;;27.92;21.20;;;18.80;99.90;;;;;;4890051;29;20293;-77
2023/05/07 09:04:27;;;;;;;27.98;21.23;;;18.80;99.90;;;;;;4915153;29;20210;-77
2023/05/07 09:06:55;;;;;;;26.08;21.02;;;18.90;99.90;;;;;;4911487;29;20206;-78
2023/05/07 09:09:22;;;;;;;31.08;21.20;;;18.90;99.90;;;;;;4916117;29;20214;-78
2023/05/07 09:11:48;;;;;;;28.85;21.83;;;18.90;99.90;;;;;;4916380;29;20213;-77
2023/05/07 09:14:15;;;;;;;27.67;20.45;;;19.00;99.90;;;;;;4916772;29;20222;-77
2023/05/07 09:16:42;;;;;;;27.67;19.85;;;19.20;99.90;;;;;;4915306;29;20324;-77
2023/05/07 09:19:09;;;;;;;25.90;21.33;;;19.40;99.90;;;;;;4911741;29;20240;-76
2023/05/07 09:21:36;;;;;;;28.83;21.13;;;19.40;99.90;;;;;;4915426;29;20214;-77
2023/05/07 09:24:03;;;;;;;25.75;19.33;;;19.50;99.90;;;;;;4915132;29;20528;-78
2023/05/07 09:26:31;;;;;;;25.00;19.70;;;19.60;99.90;;;;;;4915062;29;20245;-79
2023/05/07 09:28:57;;;;;;;27.85;21.02;;;19.80;99.90;;;;;;4915259;29;20240;-79
2023/05/07 09:31:25;;;;;;;27.02;20.88;;;19.80;99.90;;;;;;4916176;29;20508;-78
2023/05/07 09:33:53;;;;;;;25.40;19.90;;;19.90;99.90;;;;;;4915560;29;20246;-77
2023/05/07 09:36:20;;;;;;;30.42;21.33;;;19.70;99.90;;;;;;4917904;29;20423;-78
2023/05/07 09:38:46;;;;;;;26.50;20.90;;;19.80;99.90;;;;;;4915753;29;20293;-77
2023/05/07 09:41:13;;;;;;;28.23;22.30;;;19.80;99.90;;;;;;4915678;29;20293;-78
2023/05/07 09:43:40;;;;;;;24.45;20.40;;;19.70;99.90;;;;;;4917114;29;20220;-77
2023/05/07 09:46:14;;;;;;;30.20;21.75;;;19.70;99.90;;;;;;4914144;29;20265;-78
2023/05/07 09:48:43;;;;;;;25.52;21.20;;;19.60;99.90;;;;;;4916224;29;20201;-80
2023/05/07 09:51:39;;;;;;;28.17;21.48;;;19.60;99.90;;;;;;4915150;29;20296;-77
2023/05/07 09:54:06;;;;;;;26.75;20.88;;;19.60;99.90;;;;;;4914843;29;20202;-78
2023/05/07 09:56:34;;;;;;;29.52;21.08;;;19.60;99.90;;;;;;4914970;29;20319;-77
2023/05/07 09:59:01;;;;;;;26.48;21.35;;;19.50;99.90;;;;;;4916169;29;20671;-78
2023/05/07 10:01:30;;;;;;;29.83;21.27;;;19.50;99.90;;;;;;4914816;29;20294;-78
2023/05/07 10:03:58;;;;;;;26.77;21.30;;;19.50;99.90;;;;;;4912965;29;20198;-78
2023/05/07 10:06:25;;;;;;;30.05;22.83;;;19.30;99.90;;;;;;4912568;29;20198;-79
2023/05/07 10:08:53;;;;;;;29.15;22.13;;;19.20;99.90;;;;;;4915369;29;20205;-77
2023/05/07 10:11:21;;;;;;;29.95;21.60;;;19.20;99.90;;;;;;4914726;29;20217;-77
2023/05/07 10:13:49;;;;;;;28.08;21.15;;;19.20;99.90;;;;;;4915746;29;20241;-77
2023/05/07 10:16:17;;;;;;;26.38;21.50;;;19.20;99.90;;;;;;4915227;29;20261;-76
2023/05/07 10:18:46;;;;;;;31.13;23.33;;;19.20;99.90;;;;;;4914352;29;20235;-76
2023/05/07 10:21:20;;;;;;;30.58;23.67;;;19.00;99.90;;;;;;4913767;29;20198;-78
2023/05/07 10:24:19;;;;;;;28.95;21.70;;;19.00;99.90;;;;;;4913568;29;20272;-80
2023/05/07 10:26:49;;;;;;;27.52;22.08;;;19.00;99.90;;;;;;4914667;29;20725;-77
2023/05/07 10:29:44;;;;;;;29.13;21.33;;;19.00;99.90;;;;;;4914270;29;20263;-78
2023/05/07 10:32:14;;;;;;;29.67;21.42;;;19.00;99.90;;;;;;4915659;29;20197;-76
2023/05/07 10:34:45;;;;;;;34.13;25.05;;;18.90;99.90;;;;;;4914702;29;20292;-77
2023/05/07 10:37:13;;;;;;;28.67;21.67;;;19.00;99.90;;;;;;4913916;29;20537;-78
2023/05/07 10:39:41;;;;;;;33.75;22.40;;;19.00;99.90;;;;;;4915706;29;20211;-78
2023/05/07 10:42:12;;;;;;;35.42;25.08;;;19.00;99.90;;;;;;4913916;29;20670;-76
2023/05/07 10:44:39;;;;;;;32.20;24.02;;;19.10;99.90;;;;;;4914058;29;20317;-76
2023/05/07 10:47:11;;;;;;;31.42;23.23;;;19.20;99.90;;;;;;4916992;29;20571;-78
2023/05/07 10:49:41;;;;;;;32.72;23.48;;;19.20;99.90;;;;;;4895749;29;20221;-76
2023/05/07 10:52:13;;;;;;;36.08;25.17;;;19.20;99.90;;;;;;4901424;29;20229;-76
2023/05/07 10:54:40;;;;;;;37.03;24.63;;;19.30;99.90;;;;;;4905884;29;20228;-77
2023/05/07 10:57:43;;;;;;;33.00;23.42;;;19.30;99.90;;;;;;4892933;29;20250;-78
2023/05/07 11:00:40;;;;;;;35.15;24.85;;;19.40;99.90;;;;;;4847703;29;20224;-77
2023/05/07 11:03:07;;;;;;;32.30;24.05;;;19.50;99.90;;;;;;4913042;29;20726;-76
2023/05/07 11:05:35;;;;;;;30.45;23.77;;;19.60;99.90;;;;;;4910227;29;20210;-76
2023/05/07 11:08:06;;;;;;;30.67;23.25;;;19.70;99.90;;;;;;4891493;29;20332;-77
2023/05/07 11:10:53;;;;;;;31.77;24.55;;;19.70;99.90;;;;;;4914117;29;20224;-77
2023/05/07 11:13:49;;;;;;;32.08;24.15;;;19.90;99.90;;;;;;4896260;29;20198;-77
2023/05/07 11:16:24;;;;;;;33.00;24.70;;;20.00;99.90;;;;;;4892239;29;20237;-76
2023/05/07 11:18:53;;;;;;;31.50;23.27;;;20.10;99.90;;;;;;4898700;29;20237;-77
2023/05/07 11:21:40;;;;;;;32.15;25.08;;;20.20;99.90;;;;;;4918481;29;20304;-77
2023/05/07 11:24:08;;;;;;;31.35;23.70;;;20.40;99.90;;;;;;4917968;29;20209;-78
2023/05/07 11:26:44;;;;;;;31.55;23.42;;;20.60;99.90;;;;;;4923494;29;20228;-77
2023/05/07 11:29:19;;;;;;;31.17;21.63;;;20.70;99.90;;;;;;4914663;29;20276;-76
2023/05/07 11:31:52;;;;;;;30.10;22.42;;;21.00;99.90;;;;;;4897719;29;20214;-77
2023/05/07 11:34:23;;;;;;;27.60;21.35;;;21.10;99.90;;;;;;4917253;29;20220;-76
2023/05/07 11:36:51;;;;;;;30.17;22.60;;;21.80;99.90;;;;;;4896675;29;20246;-77
2023/05/07 11:39:25;;;;;;;26.60;19.45;;;21.40;99.90;;;;;;4918021;29;20209;-76
2023/05/07 11:41:52;;;;;;;21.23;18.13;;;21.60;99.90;;;;;;4917647;29;20217;-75
2023/05/07 11:44:19;;;;;;;27.92;19.45;;;22.20;99.90;;;;;;4918836;29;20276;-76
2023/05/07 11:46:46;;;;;;;22.13;17.83;;;21.90;99.90;;;;;;4915670;29;20262;-77
2023/05/07 11:49:13;;;;;;;22.58;17.45;;;22.00;99.90;;;;;;4917550;29;20304;-76
2023/05/07 11:51:41;;;;;;;19.52;16.75;;;22.00;99.90;;;;;;4919473;29;20288;-76
2023/05/07 11:54:11;;;;;;;23.63;18.40;;;22.10;99.90;;;;;;4923079;29;20244;-77
2023/05/07 11:56:38;;;;;;;22.88;17.58;;;22.10;99.90;;;;;;4918112;29;20244;-77
2023/05/07 11:59:06;;;;;;;21.85;18.08;;;22.30;99.90;;;;;;4900397;29;20223;-78
2023/05/07 12:01:35;;;;;;;22.15;18.20;;;22.30;99.90;;;;;;4913742;29;20226;-77
2023/05/07 12:04:04;;;;;;;23.95;18.65;;;22.20;99.90;;;;;;4917889;29;20253;-75
2023/05/07 12:06:31;;;;;;;23.02;16.83;;;22.20;99.90;;;;;;4914459;29;20222;-77
2023/05/07 12:09:01;;;;;;;22.30;18.27;;;22.30;99.90;;;;;;4916794;29;20299;-77
2023/05/07 12:11:28;;;;;;;20.10;16.92;;;22.40;99.90;;;;;;4895055;29;20304;-77
2023/05/07 12:13:55;;;;;;;21.05;16.75;;;22.50;99.90;;;;;;4917643;29;20202;-78
2023/05/07 12:16:26;;;;;;;22.33;17.30;;;22.80;99.90;;;;;;4895031;29;20647;-77
2023/05/07 12:18:54;;;;;;;21.50;16.73;;;23.20;99.90;;;;;;4914884;29;20237;-77
2023/05/07 12:21:22;;;;;;;21.40;16.88;;;23.30;99.90;;;;;;4916570;29;20209;-76
2023/05/07 12:23:49;;;;;;;19.45;16.05;;;23.40;99.90;;;;;;4916668;29;20206;-77
2023/05/07 12:26:15;;;;;;;24.80;16.80;;;23.50;99.90;;;;;;4905113;29;20650;-78
2023/05/07 12:28:42;;;;;;;21.52;17.05;;;23.60;99.90;;;;;;4915754;29;20630;-77
2023/05/07 12:31:10;;;;;;;20.55;16.75;;;23.70;99.90;;;;;;4908099;29;20218;-77